createdAt,value
2018-06-13T00:00:53.566Z,92.00
2018-06-13T00:03:22.464Z,92.10
2018-06-13T00:05:51.336Z,92.00
2018-06-13T00:08:20.214Z,92.00
2018-06-13T00:10:49.146Z,92.10
2018-06-13T00:13:18.008Z,92.10
2018-06-13T00:15:47.076Z,92.50
2018-06-13T00:18:15.884Z,92.30
2018-06-13T00:20:44.756Z,92.30
2018-06-13T00:23:13.558Z,92.30
2018-06-13T00:25:42.461Z,92.20
2018-06-13T00:28:11.285Z,92.30
2018-06-13T00:33:08.632Z,92.80
2018-06-13T00:35:37.444Z,92.90
2018-06-13T00:43:03.259Z,92.80
2018-06-13T00:45:32.208Z,92.80
2018-06-13T00:48:01.083Z,92.70
2018-06-13T00:52:58.444Z,92.50
2018-06-13T00:55:27.265Z,92.50
2018-06-13T00:57:56.177Z,92.50
2018-06-13T01:00:25.034Z,92.40
2018-06-13T01:02:53.968Z,92.50
2018-06-13T01:05:22.824Z,92.50
2018-06-13T01:07:51.689Z,92.40
2018-06-13T01:10:20.537Z,92.50
2018-06-13T01:12:49.464Z,92.50
2018-06-13T01:15:18.324Z,92.50
2018-06-13T01:17:47.160Z,92.90
2018-06-13T01:22:44.490Z,92.20
2018-06-13T01:25:13.413Z,92.30
2018-06-13T01:32:39.276Z,92.30
2018-06-13T01:37:36.552Z,92.30
2018-06-13T01:40:05.568Z,92.30
2018-06-13T01:42:34.394Z,92.30
2018-06-13T01:45:03.453Z,92.30
2018-06-13T01:47:32.276Z,92.40
2018-06-13T01:52:29.732Z,92.40
2018-06-13T01:54:58.609Z,92.40
2018-06-13T01:57:27.484Z,92.40
2018-06-13T01:59:56.396Z,92.30
2018-06-13T02:02:25.212Z,92.30
2018-06-13T02:04:54.132Z,92.30
2018-06-13T02:09:51.470Z,92.10
2018-06-13T02:12:20.288Z,92.10
2018-06-13T02:17:17.652Z,92.20
2018-06-13T02:19:46.586Z,92.30
2018-06-13T02:22:15.501Z,93.00
2018-06-13T02:24:44.353Z,93.00
2018-06-13T02:27:13.261Z,93.30
2018-06-13T02:29:42.144Z,93.40
2018-06-13T02:32:11.016Z,93.40
2018-06-13T02:34:39.868Z,93.30
2018-06-13T02:37:08.942Z,93.20
2018-06-13T02:39:37.792Z,93.10
2018-06-13T02:42:06.720Z,93.00
2018-06-13T02:44:35.561Z,93.00
2018-06-13T02:47:04.478Z,93.10
2018-06-13T02:49:33.337Z,93.10
2018-06-13T02:54:30.688Z,93.10
2018-06-13T02:59:28.041Z,93.20
2018-06-13T03:01:56.911Z,93.10
2018-06-13T03:04:25.764Z,93.00
2018-06-13T03:11:51.576Z,92.80
2018-06-13T03:14:20.456Z,92.70
2018-06-13T03:16:49.288Z,92.60
2018-06-13T03:19:18.183Z,92.70
2018-06-13T03:24:15.506Z,92.70
2018-06-13T03:26:44.405Z,92.60
2018-06-13T03:29:13.362Z,92.60
2018-06-13T03:31:42.249Z,92.50
2018-06-13T03:34:11.115Z,92.40
2018-06-13T03:39:09.301Z,92.30
2018-06-13T03:44:06.633Z,92.20
2018-06-13T03:46:35.460Z,92.20
2018-06-13T03:49:04.369Z,92.20
2018-06-13T03:51:33.244Z,92.20
2018-06-13T03:54:02.101Z,92.10
2018-06-13T03:56:30.968Z,92.10
2018-06-13T03:58:59.844Z,92.00
2018-06-13T04:01:28.712Z,92.00
2018-06-13T04:06:26.041Z,91.70
2018-06-13T04:08:54.948Z,91.60
2018-06-13T04:11:23.792Z,91.50
2018-06-13T04:13:52.704Z,91.40
2018-06-13T04:16:21.564Z,91.40
2018-06-13T04:18:50.468Z,91.40
2018-06-13T04:21:19.316Z,91.70
2018-06-13T04:23:48.228Z,91.30
2018-06-13T04:26:17.107Z,91.30
2018-06-13T04:31:14.623Z,91.40
2018-06-13T04:33:43.476Z,91.60
2018-06-13T04:36:12.396Z,91.30
2018-06-13T04:38:41.170Z,91.20
2018-06-13T04:41:10.108Z,91.50
2018-06-13T04:43:38.913Z,91.00
2018-06-13T04:46:07.860Z,90.90
2018-06-13T04:48:36.672Z,90.90
2018-06-13T04:51:05.592Z,91.20
2018-06-13T04:53:34.410Z,91.10
2018-06-13T04:56:03.319Z,91.10
2018-06-13T04:58:32.165Z,90.70
2018-06-13T05:03:29.460Z,90.40
2018-06-13T05:05:58.333Z,90.20
2018-06-13T05:10:55.730Z,89.30
2018-06-13T05:13:24.584Z,88.70
2018-06-13T05:15:53.497Z,87.50
2018-06-13T05:23:19.337Z,85.70
2018-06-13T05:28:16.613Z,84.70
2018-06-13T05:30:45.529Z,84.20
2018-06-13T05:33:14.333Z,84.30
2018-06-13T05:35:43.235Z,84.40
2018-06-13T05:38:12.301Z,83.40
2018-06-13T05:40:41.956Z,82.80
2018-06-13T05:43:10.845Z,82.20
2018-06-13T05:45:40.329Z,79.50
2018-06-13T05:48:09.189Z,79.40
2018-06-13T05:50:38.032Z,80.50
2018-06-13T05:53:07.192Z,80.10
2018-06-13T05:55:36.332Z,79.30
2018-06-13T05:58:05.265Z,79.80
2018-06-13T06:00:34.185Z,81.10
2018-06-13T06:03:03.892Z,80.70
2018-06-13T06:05:32.789Z,79.70
2018-06-13T06:08:01.989Z,79.20
2018-06-13T06:10:30.977Z,77.30
2018-06-13T06:12:59.800Z,78.30
2018-06-13T06:15:28.669Z,81.60
2018-06-13T06:17:57.609Z,82.20
2018-06-13T06:22:55.000Z,84.30
2018-06-13T06:25:23.876Z,82.80
2018-06-13T06:27:52.903Z,80.30
2018-06-13T06:30:21.844Z,79.40
2018-06-13T06:35:19.222Z,74.80
2018-06-13T06:40:16.561Z,75.10
2018-06-13T06:42:45.488Z,75.50
2018-06-13T06:45:14.429Z,77.00
2018-06-13T06:47:43.325Z,77.60
2018-06-13T06:50:12.219Z,73.70
2018-06-13T06:52:41.120Z,73.90
2018-06-13T06:55:09.991Z,72.60
2018-06-13T06:57:38.948Z,72.10
2018-06-13T07:00:07.858Z,70.10
2018-06-13T07:02:36.749Z,70.30
2018-06-13T07:05:05.563Z,71.60
2018-06-13T07:07:34.520Z,71.30
2018-06-13T07:10:03.316Z,72.10
2018-06-13T07:12:32.241Z,72.70
2018-06-13T07:15:01.097Z,71.50
2018-06-13T07:17:30.117Z,71.90
2018-06-13T07:19:59.056Z,74.10
2018-06-13T07:22:27.839Z,69.30
2018-06-13T07:24:56.859Z,69.30
2018-06-13T07:27:25.668Z,68.10
2018-06-13T07:29:54.599Z,68.60
2018-06-13T07:32:23.393Z,68.10
2018-06-13T07:37:20.696Z,67.80
2018-06-13T07:39:49.588Z,68.40
2018-06-13T07:42:23.416Z,67.40
2018-06-13T07:44:52.459Z,68.10
2018-06-13T07:49:49.881Z,68.40
2018-06-13T07:52:18.769Z,65.30
2018-06-13T07:54:47.639Z,68.00
2018-06-13T07:57:16.442Z,66.40
2018-06-13T07:59:45.312Z,66.50
2018-06-13T08:02:14.171Z,65.50
2018-06-13T08:04:43.104Z,65.80
2018-06-13T08:07:11.982Z,67.20
2018-06-13T08:09:40.797Z,65.40
2018-06-13T08:12:09.767Z,65.20
2018-06-13T08:14:38.577Z,64.20
2018-06-13T08:17:07.602Z,63.70
2018-06-13T08:19:36.444Z,64.30
2018-06-13T08:22:05.376Z,62.70
2018-06-13T08:24:45.263Z,63.00
2018-06-13T08:29:42.608Z,64.20
2018-06-13T08:32:11.532Z,65.10
2018-06-13T08:34:40.498Z,65.60
2018-06-13T08:37:09.461Z,64.00
2018-06-13T08:39:38.281Z,64.10
2018-06-13T08:42:08.619Z,62.70
2018-06-13T08:44:37.484Z,62.20
2018-06-13T08:47:06.395Z,62.30
2018-06-13T08:52:03.841Z,62.80
2018-06-13T08:54:32.840Z,63.30
2018-06-13T08:57:01.673Z,64.00
2018-06-13T08:59:30.777Z,63.30
2018-06-13T09:02:00.730Z,63.30
2018-06-13T09:04:29.631Z,62.90
2018-06-13T09:06:58.554Z,65.30
2018-06-13T09:09:27.509Z,64.50
2018-06-13T09:11:56.513Z,64.40
2018-06-13T09:14:26.632Z,64.80
2018-06-13T09:16:55.697Z,64.60
2018-06-13T09:19:27.306Z,64.80
2018-06-13T09:21:56.315Z,63.10
2018-06-13T09:24:25.272Z,61.30
2018-06-13T09:26:55.681Z,60.50
2018-06-13T09:29:24.720Z,61.10
2018-06-13T09:31:53.606Z,61.00
2018-06-13T09:34:22.561Z,62.00
2018-06-13T09:36:51.880Z,62.90
2018-06-13T09:41:54.607Z,66.00
2018-06-13T09:44:23.573Z,65.70
2018-06-13T09:46:52.461Z,66.90
2018-06-13T09:51:49.929Z,70.00
2018-06-13T09:54:18.793Z,69.40
2018-06-13T09:56:47.825Z,68.40
2018-06-13T09:59:20.218Z,69.50
2018-06-13T10:01:55.045Z,71.60
2018-06-13T10:04:23.987Z,73.00
2018-06-13T10:06:53.381Z,73.40
2018-06-13T10:09:22.304Z,73.50
2018-06-13T10:11:51.280Z,73.30
2018-06-13T10:14:20.198Z,73.50
2018-06-13T10:19:18.601Z,71.10
2018-06-13T10:21:47.597Z,68.30
2018-06-13T10:24:16.533Z,71.10
2018-06-13T10:26:45.516Z,64.20
2018-06-13T10:29:14.382Z,63.50
2018-06-13T10:31:43.443Z,60.70
2018-06-13T10:34:12.523Z,58.40
2018-06-13T10:36:41.418Z,58.00
2018-06-13T10:39:10.391Z,57.50
2018-06-13T10:41:39.301Z,56.50
2018-06-13T10:44:08.275Z,54.90
2018-06-13T10:46:54.785Z,54.40
2018-06-13T10:49:23.759Z,54.50
2018-06-13T10:51:52.945Z,52.10
2018-06-13T10:54:21.921Z,52.60
2018-06-13T10:56:57.625Z,51.60
2018-06-13T10:59:26.640Z,52.70
2018-06-13T11:01:55.505Z,51.50
2018-06-13T11:04:24.505Z,50.50
2018-06-13T11:06:53.381Z,51.30
2018-06-13T11:09:22.665Z,51.50
2018-06-13T11:11:51.861Z,52.40
2018-06-13T11:14:20.806Z,51.80
2018-06-13T11:16:49.773Z,50.90
2018-06-13T11:19:18.681Z,51.10
2018-06-13T11:21:48.633Z,50.30
2018-06-13T11:24:17.530Z,48.60
2018-06-13T11:26:46.487Z,48.80
2018-06-13T11:31:45.471Z,48.10
2018-06-13T11:34:14.397Z,48.40
2018-06-13T11:36:43.505Z,48.40
2018-06-13T11:39:12.726Z,48.00
2018-06-13T11:41:41.833Z,46.40
2018-06-13T11:44:10.833Z,48.00
2018-06-13T11:46:39.767Z,47.00
2018-06-13T11:49:08.841Z,48.00
2018-06-13T11:51:37.753Z,47.90
2018-06-13T11:56:35.161Z,49.30
2018-06-13T11:59:04.105Z,51.30
2018-06-13T12:01:33.086Z,52.00
2018-06-13T12:04:02.027Z,53.40
2018-06-13T12:06:30.881Z,53.10
2018-06-13T12:08:59.834Z,54.10
2018-06-13T12:11:28.907Z,54.60
2018-06-13T12:13:57.856Z,57.70
2018-06-13T12:16:26.874Z,56.90
2018-06-13T12:18:55.910Z,54.80
2018-06-13T12:21:24.833Z,55.10
2018-06-13T12:23:53.693Z,55.60
2018-06-13T12:26:22.620Z,56.30
2018-06-13T12:31:20.066Z,59.70
2018-06-13T12:33:48.966Z,57.60
2018-06-13T12:36:17.925Z,59.50
2018-06-13T12:38:46.855Z,57.70
2018-06-13T12:41:15.763Z,58.70
2018-06-13T12:43:44.745Z,59.00
2018-06-13T12:46:13.712Z,59.60
2018-06-13T12:48:42.817Z,57.10
2018-06-13T12:51:11.737Z,54.30
2018-06-13T12:56:09.096Z,53.70
2018-06-13T12:58:38.074Z,52.50
2018-06-13T13:01:06.973Z,53.60
2018-06-13T13:03:36.029Z,52.70
2018-06-13T13:06:04.929Z,50.40
2018-06-13T13:08:33.930Z,52.00
2018-06-13T13:11:02.883Z,52.50
2018-06-13T13:13:31.813Z,53.40
2018-06-13T13:16:00.716Z,53.60
2018-06-13T13:18:29.606Z,52.40
2018-06-13T13:20:58.557Z,51.50
2018-06-13T13:23:27.514Z,52.10
2018-06-13T13:25:56.449Z,52.80
2018-06-13T13:28:25.357Z,54.80
2018-06-13T13:30:54.281Z,54.60
2018-06-13T13:33:23.317Z,54.60
2018-06-13T13:35:52.195Z,55.00
2018-06-13T13:38:21.749Z,54.50
2018-06-13T13:40:50.706Z,54.90
2018-06-13T13:43:19.691Z,54.30
2018-06-13T13:45:48.831Z,54.60
2018-06-13T13:48:17.774Z,54.80
2018-06-13T13:53:16.143Z,55.40
2018-06-13T13:55:48.415Z,55.90
2018-06-13T13:58:18.420Z,56.00
2018-06-13T14:00:48.097Z,56.60
2018-06-13T14:03:19.371Z,56.50
2018-06-13T14:05:48.959Z,57.40
2018-06-13T14:08:19.051Z,61.00
2018-06-13T14:10:49.140Z,64.80
2018-06-13T14:18:15.477Z,75.90
2018-06-13T14:20:46.208Z,76.70
2018-06-13T14:23:15.844Z,79.60
2018-06-13T14:25:45.757Z,80.30
2018-06-13T14:28:15.167Z,81.50
2018-06-13T14:30:44.121Z,82.60
2018-06-13T14:33:14.141Z,82.60
2018-06-13T14:35:44.918Z,84.10
2018-06-13T14:38:15.422Z,85.30
2018-06-13T14:40:44.296Z,86.30
2018-06-13T14:43:13.416Z,86.40
2018-06-13T14:45:42.654Z,86.10
2018-06-13T14:48:12.012Z,87.00
2018-06-13T14:53:09.935Z,88.70
2018-06-13T14:55:49.400Z,88.30
2018-06-13T14:58:19.402Z,87.60
2018-06-13T15:00:49.065Z,87.70
2018-06-13T15:03:18.994Z,87.40
2018-06-13T15:08:17.271Z,88.10
2018-06-13T15:10:46.257Z,88.90
2018-06-13T15:13:16.332Z,89.80
2018-06-13T15:15:45.221Z,88.90
2018-06-13T15:18:14.227Z,88.20
2018-06-13T15:20:43.122Z,88.20
2018-06-13T15:23:12.072Z,87.70
2018-06-13T15:30:37.972Z,89.10
2018-06-13T15:33:06.932Z,89.30
2018-06-13T15:35:35.893Z,89.30
2018-06-13T15:38:06.936Z,89.00
2018-06-13T15:43:27.525Z,89.10
2018-06-13T15:45:56.513Z,88.40
2018-06-13T15:48:25.388Z,88.30
2018-06-13T15:50:54.337Z,88.50
2018-06-13T15:53:23.278Z,88.80
2018-06-13T15:55:53.450Z,88.90
2018-06-13T15:58:22.421Z,89.40
2018-06-13T16:00:51.414Z,89.30
2018-06-13T16:03:21.301Z,89.30
2018-06-13T16:05:50.322Z,90.20
2018-06-13T16:10:47.856Z,90.40
2018-06-13T16:13:16.784Z,90.80
2018-06-13T16:15:45.747Z,91.00
2018-06-13T16:18:14.682Z,91.30
2018-06-13T16:23:12.279Z,91.30
2018-06-13T16:25:41.345Z,91.70
2018-06-13T16:28:10.471Z,91.60
2018-06-13T16:30:39.539Z,91.80
2018-06-13T16:33:08.502Z,91.70
2018-06-13T16:35:38.354Z,91.90
2018-06-13T16:40:35.874Z,91.60
2018-06-13T16:43:04.906Z,91.80
2018-06-13T16:45:33.841Z,91.90
2018-06-13T16:48:02.833Z,92.00
2018-06-13T16:50:42.717Z,92.10
2018-06-13T16:54:16.348Z,92.20
2018-06-13T16:56:45.253Z,92.00
2018-06-13T16:59:14.186Z,92.00
2018-06-13T17:01:43.245Z,92.10
2018-06-13T17:04:12.198Z,92.10
2018-06-13T17:06:41.177Z,92.30
2018-06-13T17:09:10.085Z,92.30
2018-06-13T17:11:39.079Z,92.30
2018-06-13T17:16:38.401Z,92.40
2018-06-13T17:19:07.350Z,92.30
2018-06-13T17:21:36.347Z,92.70
2018-06-13T17:24:05.256Z,92.70
2018-06-13T17:26:34.190Z,92.70
2018-06-13T17:29:03.154Z,92.70
2018-06-13T17:31:32.102Z,92.50
2018-06-13T17:36:30.766Z,92.80
2018-06-13T17:38:59.757Z,93.00
2018-06-13T17:41:28.733Z,93.10
2018-06-13T17:43:57.689Z,93.00
2018-06-13T17:46:26.735Z,93.10
2018-06-13T17:48:55.769Z,93.30
2018-06-13T17:51:24.785Z,93.50
2018-06-13T17:53:53.691Z,93.20
2018-06-13T17:56:23.230Z,93.40
2018-06-13T18:01:21.175Z,92.80
2018-06-13T18:03:50.292Z,92.10
2018-06-13T18:06:19.371Z,92.10
2018-06-13T18:08:48.425Z,92.00
2018-06-13T18:11:18.006Z,91.90
2018-06-13T18:16:15.905Z,91.80
2018-06-13T18:18:44.843Z,91.90
2018-06-13T18:21:13.960Z,91.70
2018-06-13T18:23:43.136Z,92.00
2018-06-13T18:26:12.117Z,91.60
2018-06-13T18:28:41.028Z,91.60
2018-06-13T18:31:10.322Z,91.60
2018-06-13T18:33:39.683Z,91.90
2018-06-13T18:36:09.570Z,91.60
2018-06-13T18:38:38.534Z,91.90
2018-06-13T18:41:07.596Z,92.00
2018-06-13T18:43:36.917Z,91.60
2018-06-13T18:46:05.977Z,91.60
2018-06-13T18:48:34.921Z,91.60
2018-06-13T18:51:03.829Z,91.50
2018-06-13T18:53:33.109Z,90.90
2018-06-13T18:56:02.081Z,90.80
2018-06-13T18:58:30.965Z,91.10
2018-06-13T19:01:00.022Z,91.30
2018-06-13T19:03:29.013Z,91.50
2018-06-13T19:05:58.030Z,91.30
2018-06-13T19:08:26.896Z,91.20
2018-06-13T19:10:55.981Z,91.40
2018-06-13T19:13:24.955Z,91.20
2018-06-13T19:15:54.132Z,91.30
2018-06-13T19:18:25.013Z,91.30
2018-06-13T19:20:54.129Z,91.30
2018-06-13T19:23:23.122Z,91.40
2018-06-13T19:28:31.235Z,91.30
2018-06-13T19:31:00.469Z,91.10
2018-06-13T19:33:30.213Z,90.80
2018-06-13T19:35:59.183Z,90.90
2018-06-13T19:38:28.642Z,90.90
2018-06-13T19:40:57.621Z,91.00
2018-06-13T19:43:31.701Z,91.20
2018-06-13T19:46:00.606Z,91.10
2018-06-13T19:48:34.729Z,91.20
2018-06-13T19:51:03.770Z,91.40
2018-06-13T19:53:37.952Z,91.40
2018-06-13T19:56:08.329Z,91.60
2018-06-13T19:58:38.549Z,91.40
2018-06-13T20:01:07.955Z,91.30
2018-06-13T20:03:42.081Z,91.30
2018-06-13T20:06:11.621Z,91.50
2018-06-13T20:08:40.593Z,91.80
2018-06-13T20:11:09.520Z,92.00
2018-06-13T20:13:43.913Z,92.20
2018-06-13T20:16:18.089Z,91.80
2018-06-13T20:18:52.217Z,91.70
2018-06-13T20:21:21.121Z,91.90
2018-06-13T20:23:50.154Z,92.00
2018-06-13T20:26:24.667Z,92.20
2018-06-13T20:28:59.028Z,91.50
2018-06-13T20:31:32.082Z,91.50
2018-06-13T20:34:01.593Z,91.60
2018-06-13T20:38:59.446Z,92.50
2018-06-13T20:41:28.617Z,92.60
2018-06-13T20:43:57.542Z,92.70
2018-06-13T20:46:27.326Z,92.80
2018-06-13T20:48:56.376Z,92.90
2018-06-13T20:51:25.351Z,92.90
2018-06-13T20:53:54.286Z,93.00
2018-06-13T20:56:23.133Z,93.00
2018-06-13T20:58:52.117Z,93.00
2018-06-13T21:06:24.056Z,92.80
2018-06-13T21:08:53.015Z,92.80
2018-06-13T21:11:22.067Z,93.00
2018-06-13T21:13:51.108Z,93.00
2018-06-13T21:18:48.816Z,92.80
2018-06-13T21:21:17.712Z,92.70
2018-06-13T21:23:46.678Z,92.50
2018-06-13T21:31:12.668Z,92.50
2018-06-13T21:33:41.645Z,92.50
2018-06-13T21:36:10.517Z,92.90
2018-06-13T21:38:39.468Z,92.90
2018-06-13T21:41:08.389Z,92.90
2018-06-13T21:43:37.369Z,93.20
2018-06-13T21:46:06.333Z,93.10
2018-06-13T21:48:35.192Z,93.10
2018-06-13T21:51:04.156Z,93.10
2018-06-13T21:56:01.887Z,93.40
2018-06-13T21:58:33.010Z,93.50
2018-06-13T22:01:01.953Z,93.30
2018-06-13T22:03:30.875Z,93.20
2018-06-13T22:05:59.793Z,93.20
2018-06-13T22:08:28.761Z,93.30
2018-06-13T22:13:26.410Z,92.80
2018-06-13T22:15:55.302Z,92.80
2018-06-13T22:18:24.233Z,92.80
2018-06-13T22:20:53.192Z,92.90
2018-06-13T22:23:22.150Z,92.80
2018-06-13T22:25:51.051Z,92.90
2018-06-13T22:28:20.041Z,92.90
2018-06-13T22:30:49.498Z,93.00
2018-06-13T22:33:18.510Z,93.10
2018-06-13T22:35:47.441Z,93.30
2018-06-13T22:38:16.366Z,93.20
2018-06-13T22:40:45.333Z,93.30
2018-06-13T22:43:14.201Z,93.50
2018-06-13T22:45:43.160Z,93.50
2018-06-13T22:48:12.044Z,93.60
2018-06-13T22:53:09.572Z,93.50
2018-06-13T22:55:38.548Z,93.50
2018-06-13T22:58:07.545Z,93.50
2018-06-13T23:01:10.436Z,93.50
2018-06-13T23:03:39.609Z,93.60
2018-06-13T23:06:09.705Z,93.60
2018-06-13T23:08:39.228Z,93.50
2018-06-13T23:13:36.861Z,93.80
2018-06-13T23:16:05.821Z,93.80
2018-06-13T23:18:34.793Z,93.80
2018-06-13T23:21:03.803Z,93.70
2018-06-13T23:23:32.761Z,93.60
2018-06-13T23:26:01.689Z,93.40
2018-06-13T23:28:30.622Z,93.30
2018-06-13T23:30:59.600Z,93.40
2018-06-13T23:33:28.515Z,93.50
2018-06-13T23:35:57.433Z,93.50
2018-06-13T23:38:26.350Z,93.50
2018-06-13T23:40:55.266Z,93.40
2018-06-13T23:43:24.326Z,93.40
2018-06-13T23:45:53.173Z,93.30
2018-06-13T23:50:50.559Z,93.30
2018-06-13T23:53:19.587Z,93.30
2018-06-13T23:55:48.532Z,93.40
2018-06-13T23:58:17.445Z,93.50
